sensor_id;sensor_type;location;lat;lon;timestamp;P1;durP1;ratioP1;P2;durP2;ratioP2
14933;SDS011;7560;51.364;12.384;2023-05-14T00:00:08;7.15;;;5.82;;
14933;SDS011;7560;51.364;12.384;2023-05-14T00:05:10;6.10;;;5.50;;
14933;SDS011;7560;51.364;12.384;2023-05-14T00:10:12;6.63;;;5.93;;
14933;SDS011;7560;51.364;12.384;2023-05-14T00:15:14;7.53;;;5.90;;
14933;SDS011;7560;51.364;12.384;2023-05-14T00:20:16;5.82;;;5.32;;
14933;SDS011;7560;51.364;12.384;2023-05-14T00:25:23;7.82;;;5.78;;
14933;SDS011;7560;51.364;12.384;2023-05-14T00:30:25;10.75;;;6.18;;
14933;SDS011;7560;51.364;12.384;2023-05-14T00:35:27;6.53;;;5.60;;
14933;SDS011;7560;51.364;12.384;2023-05-14T00:40:31;5.97;;;5.38;;
14933;SDS011;7560;51.364;12.384;2023-05-14T00:45:33;6.85;;;6.07;;
14933;SDS011;7560;51.364;12.384;2023-05-14T00:50:35;6.45;;;5.53;;
14933;SDS011;7560;51.364;12.384;2023-05-14T00:55:40;5.93;;;5.40;;
14933;SDS011;7560;51.364;12.384;2023-05-14T01:00:42;8.27;;;5.80;;
14933;SDS011;7560;51.364;12.384;2023-05-14T01:11:18;6.13;;;5.20;;
14933;SDS011;7560;51.364;12.384;2023-05-14T01:16:26;6.88;;;5.78;;
14933;SDS011;7560;51.364;12.384;2023-05-14T01:21:35;7.22;;;6.03;;
14933;SDS011;7560;51.364;12.384;2023-05-14T01:26:38;6.60;;;5.43;;
14933;SDS011;7560;51.364;12.384;2023-05-14T01:31:42;9.77;;;6.05;;
14933;SDS011;7560;51.364;12.384;2023-05-14T01:36:45;7.03;;;5.82;;
14933;SDS011;7560;51.364;12.384;2023-05-14T01:41:48;8.13;;;6.10;;
14933;SDS011;7560;51.364;12.384;2023-05-14T01:46:51;7.43;;;6.28;;
14933;SDS011;7560;51.364;12.384;2023-05-14T01:51:53;7.38;;;6.18;;
14933;SDS011;7560;51.364;12.384;2023-05-14T01:56:55;7.97;;;5.60;;
14933;SDS011;7560;51.364;12.384;2023-05-14T02:01:57;9.30;;;6.38;;
14933;SDS011;7560;51.364;12.384;2023-05-14T02:06:59;7.45;;;6.10;;
14933;SDS011;7560;51.364;12.384;2023-05-14T02:12:00;10.48;;;6.78;;
14933;SDS011;7560;51.364;12.384;2023-05-14T02:17:03;8.98;;;7.05;;
14933;SDS011;7560;51.364;12.384;2023-05-14T02:22:07;8.13;;;6.43;;
14933;SDS011;7560;51.364;12.384;2023-05-14T02:27:08;7.18;;;6.45;;
14933;SDS011;7560;51.364;12.384;2023-05-14T02:32:13;7.75;;;6.90;;
14933;SDS011;7560;51.364;12.384;2023-05-14T02:37:15;7.93;;;6.68;;
14933;SDS011;7560;51.364;12.384;2023-05-14T02:42:18;7.45;;;6.43;;
14933;SDS011;7560;51.364;12.384;2023-05-14T02:47:20;7.78;;;6.97;;
14933;SDS011;7560;51.364;12.384;2023-05-14T02:52:22;10.73;;;6.72;;
14933;SDS011;7560;51.364;12.384;2023-05-14T02:57:24;9.27;;;7.07;;
14933;SDS011;7560;51.364;12.384;2023-05-14T03:02:27;9.60;;;7.25;;
14933;SDS011;7560;51.364;12.384;2023-05-14T03:07:29;8.25;;;6.15;;
14933;SDS011;7560;51.364;12.384;2023-05-14T03:12:33;9.00;;;6.90;;
14933;SDS011;7560;51.364;12.384;2023-05-14T03:17:35;9.23;;;7.70;;
14933;SDS011;7560;51.364;12.384;2023-05-14T03:22:37;8.32;;;7.47;;
14933;SDS011;7560;51.364;12.384;2023-05-14T03:27:40;8.65;;;7.50;;
14933;SDS011;7560;51.364;12.384;2023-05-14T03:32:41;9.55;;;7.10;;
14933;SDS011;7560;51.364;12.384;2023-05-14T03:37:44;8.40;;;7.25;;
14933;SDS011;7560;51.364;12.384;2023-05-14T03:42:46;11.52;;;7.75;;
14933;SDS011;7560;51.364;12.384;2023-05-14T03:47:48;8.88;;;7.10;;
14933;SDS011;7560;51.364;12.384;2023-05-14T03:52:51;7.65;;;6.78;;
14933;SDS011;7560;51.364;12.384;2023-05-14T03:57:53;9.50;;;7.30;;
14933;SDS011;7560;51.364;12.384;2023-05-14T04:02:56;8.48;;;6.88;;
14933;SDS011;7560;51.364;12.384;2023-05-14T04:07:58;7.80;;;6.95;;
14933;SDS011;7560;51.364;12.384;2023-05-14T04:13:01;9.13;;;6.72;;
14933;SDS011;7560;51.364;12.384;2023-05-14T04:18:03;8.50;;;7.03;;
14933;SDS011;7560;51.364;12.384;2023-05-14T04:23:06;7.93;;;7.13;;
14933;SDS011;7560;51.364;12.384;2023-05-14T04:28:09;9.15;;;6.85;;
14933;SDS011;7560;51.364;12.384;2023-05-14T04:33:12;7.78;;;6.97;;
14933;SDS011;7560;51.364;12.384;2023-05-14T04:38:14;9.18;;;7.00;;
14933;SDS011;7560;51.364;12.384;2023-05-14T04:43:15;8.32;;;6.95;;
14933;SDS011;7560;51.364;12.384;2023-05-14T04:48:17;11.40;;;6.88;;
14933;SDS011;7560;51.364;12.384;2023-05-14T04:53:21;8.77;;;6.90;;
14933;SDS011;7560;51.364;12.384;2023-05-14T04:58:23;8.57;;;7.03;;
14933;SDS011;7560;51.364;12.384;2023-05-14T05:03:27;12.88;;;7.05;;
14933;SDS011;7560;51.364;12.384;2023-05-14T05:08:29;9.02;;;6.97;;
14933;SDS011;7560;51.364;12.384;2023-05-14T05:13:32;7.15;;;6.45;;
14933;SDS011;7560;51.364;12.384;2023-05-14T05:18:34;9.95;;;7.30;;
14933;SDS011;7560;51.364;12.384;2023-05-14T05:23:36;7.90;;;7.10;;
14933;SDS011;7560;51.364;12.384;2023-05-14T05:28:39;8.88;;;7.25;;
14933;SDS011;7560;51.364;12.384;2023-05-14T05:33:41;11.10;;;7.18;;
14933;SDS011;7560;51.364;12.384;2023-05-14T05:38:48;8.10;;;7.00;;
14933;SDS011;7560;51.364;12.384;2023-05-14T05:43:52;8.93;;;7.47;;
14933;SDS011;7560;51.364;12.384;2023-05-14T05:48:56;10.02;;;6.93;;
14933;SDS011;7560;51.364;12.384;2023-05-14T05:53:58;9.45;;;7.88;;
14933;SDS011;7560;51.364;12.384;2023-05-14T05:59:00;8.48;;;6.95;;
14933;SDS011;7560;51.364;12.384;2023-05-14T06:04:02;9.90;;;7.53;;
14933;SDS011;7560;51.364;12.384;2023-05-14T06:09:06;8.40;;;7.18;;
14933;SDS011;7560;51.364;12.384;2023-05-14T06:14:09;10.20;;;7.15;;
14933;SDS011;7560;51.364;12.384;2023-05-14T06:19:11;8.30;;;7.50;;
14933;SDS011;7560;51.364;12.384;2023-05-14T06:24:13;11.80;;;7.28;;
14933;SDS011;7560;51.364;12.384;2023-05-14T06:29:17;7.55;;;6.75;;
14933;SDS011;7560;51.364;12.384;2023-05-14T06:34:19;8.75;;;7.18;;
14933;SDS011;7560;51.364;12.384;2023-05-14T06:39:23;7.95;;;7.15;;
14933;SDS011;7560;51.364;12.384;2023-05-14T06:44:24;8.88;;;6.55;;
14933;SDS011;7560;51.364;12.384;2023-05-14T06:49:31;8.88;;;6.78;;
14933;SDS011;7560;51.364;12.384;2023-05-14T06:54:34;10.00;;;7.57;;
14933;SDS011;7560;51.364;12.384;2023-05-14T06:59:38;7.90;;;7.10;;
14933;SDS011;7560;51.364;12.384;2023-05-14T07:04:40;7.70;;;6.40;;
14933;SDS011;7560;51.364;12.384;2023-05-14T07:09:42;9.05;;;6.53;;
14933;SDS011;7560;51.364;12.384;2023-05-14T07:14:45;7.60;;;6.80;;
14933;SDS011;7560;51.364;12.384;2023-05-14T07:19:48;6.95;;;6.07;;
14933;SDS011;7560;51.364;12.384;2023-05-14T07:24:49;8.23;;;6.18;;
14933;SDS011;7560;51.364;12.384;2023-05-14T07:29:52;7.50;;;6.60;;
14933;SDS011;7560;51.364;12.384;2023-05-14T07:34:54;6.28;;;5.63;;
14933;SDS011;7560;51.364;12.384;2023-05-14T07:39:59;7.50;;;6.00;;
14933;SDS011;7560;51.364;12.384;2023-05-14T07:45:01;7.47;;;6.68;;
14933;SDS011;7560;51.364;12.384;2023-05-14T07:50:04;7.22;;;6.53;;
14933;SDS011;7560;51.364;12.384;2023-05-14T07:55:07;6.97;;;6.28;;
14933;SDS011;7560;51.364;12.384;2023-05-14T08:00:09;6.72;;;6.13;;
14933;SDS011;7560;51.364;12.384;2023-05-14T08:05:12;6.72;;;5.70;;
14933;SDS011;7560;51.364;12.384;2023-05-14T08:10:14;6.15;;;5.55;;
14933;SDS011;7560;51.364;12.384;2023-05-14T08:15:16;6.75;;;5.78;;
14933;SDS011;7560;51.364;12.384;2023-05-14T08:20:18;6.32;;;5.57;;
14933;SDS011;7560;51.364;12.384;2023-05-14T08:25:25;7.47;;;6.43;;
14933;SDS011;7560;51.364;12.384;2023-05-14T08:30:27;6.15;;;5.45;;
14933;SDS011;7560;51.364;12.384;2023-05-14T08:35:29;9.07;;;6.25;;
14933;SDS011;7560;51.364;12.384;2023-05-14T08:40:32;6.72;;;5.72;;
14933;SDS011;7560;51.364;12.384;2023-05-14T08:45:34;9.52;;;6.85;;
14933;SDS011;7560;51.364;12.384;2023-05-14T08:50:38;8.70;;;6.20;;
14933;SDS011;7560;51.364;12.384;2023-05-14T08:55:42;7.28;;;6.00;;
14933;SDS011;7560;51.364;12.384;2023-05-14T09:00:45;8.95;;;6.63;;
14933;SDS011;7560;51.364;12.384;2023-05-14T09:05:49;8.00;;;6.40;;
14933;SDS011;7560;51.364;12.384;2023-05-14T09:10:54;6.95;;;5.88;;
14933;SDS011;7560;51.364;12.384;2023-05-14T09:15:56;6.80;;;6.10;;
14933;SDS011;7560;51.364;12.384;2023-05-14T09:20:59;6.28;;;5.68;;
14933;SDS011;7560;51.364;12.384;2023-05-14T09:26:04;8.40;;;6.20;;
14933;SDS011;7560;51.364;12.384;2023-05-14T09:31:09;7.88;;;5.78;;
14933;SDS011;7560;51.364;12.384;2023-05-14T09:36:12;5.63;;;4.93;;
14933;SDS011;7560;51.364;12.384;2023-05-14T09:41:14;5.78;;;5.25;;
14933;SDS011;7560;51.364;12.384;2023-05-14T09:46:16;5.85;;;4.80;;
14933;SDS011;7560;51.364;12.384;2023-05-14T09:51:20;6.13;;;5.30;;
14933;SDS011;7560;51.364;12.384;2023-05-14T09:56:22;6.75;;;5.22;;
14933;SDS011;7560;51.364;12.384;2023-05-14T10:01:24;5.50;;;4.97;;
14933;SDS011;7560;51.364;12.384;2023-05-14T10:06:29;5.53;;;4.93;;
14933;SDS011;7560;51.364;12.384;2023-05-14T10:11:35;5.38;;;4.88;;
14933;SDS011;7560;51.364;12.384;2023-05-14T10:16:39;7.70;;;5.15;;
14933;SDS011;7560;51.364;12.384;2023-05-14T10:21:54;5.13;;;4.63;;
14933;SDS011;7560;51.364;12.384;2023-05-14T10:27:00;6.35;;;4.53;;
14933;SDS011;7560;51.364;12.384;2023-05-14T10:32:06;5.82;;;4.85;;
14933;SDS011;7560;51.364;12.384;2023-05-14T10:37:20;8.32;;;5.40;;
14933;SDS011;7560;51.364;12.384;2023-05-14T10:42:26;5.18;;;4.68;;
14933;SDS011;7560;51.364;12.384;2023-05-14T10:47:36;6.85;;;4.60;;
14933;SDS011;7560;51.364;12.384;2023-05-14T10:52:43;5.68;;;4.45;;
14933;SDS011;7560;51.364;12.384;2023-05-14T10:57:46;5.97;;;5.25;;
14933;SDS011;7560;51.364;12.384;2023-05-14T11:02:49;5.82;;;5.00;;
14933;SDS011;7560;51.364;12.384;2023-05-14T11:07:59;7.00;;;6.22;;
14933;SDS011;7560;51.364;12.384;2023-05-14T11:13:09;4.95;;;4.45;;
14933;SDS011;7560;51.364;12.384;2023-05-14T11:18:12;5.43;;;4.43;;
14933;SDS011;7560;51.364;12.384;2023-05-14T11:23:15;7.00;;;5.00;;
14933;SDS011;7560;51.364;12.384;2023-05-14T11:28:18;5.28;;;4.47;;
14933;SDS011;7560;51.364;12.384;2023-05-14T11:33:22;5.70;;;4.43;;
14933;SDS011;7560;51.364;12.384;2023-05-14T11:38:24;7.18;;;4.80;;
14933;SDS011;7560;51.364;12.384;2023-05-14T11:43:27;5.88;;;4.47;;
14933;SDS011;7560;51.364;12.384;2023-05-14T11:48:31;6.45;;;4.97;;
14933;SDS011;7560;51.364;12.384;2023-05-14T11:53:35;6.35;;;4.88;;
14933;SDS011;7560;51.364;12.384;2023-05-14T11:58:38;5.50;;;4.55;;
14933;SDS011;7560;51.364;12.384;2023-05-14T12:03:47;5.43;;;4.13;;
14933;SDS011;7560;51.364;12.384;2023-05-14T12:08:51;4.60;;;3.55;;
14933;SDS011;7560;51.364;12.384;2023-05-14T12:13:58;3.45;;;3.15;;
14933;SDS011;7560;51.364;12.384;2023-05-14T12:19:00;3.97;;;3.63;;
14933;SDS011;7560;51.364;12.384;2023-05-14T12:24:02;4.78;;;3.75;;
14933;SDS011;7560;51.364;12.384;2023-05-14T12:29:05;6.90;;;4.07;;
14933;SDS011;7560;51.364;12.384;2023-05-14T12:34:07;4.65;;;3.85;;
14933;SDS011;7560;51.364;12.384;2023-05-14T12:39:09;4.22;;;3.83;;
14933;SDS011;7560;51.364;12.384;2023-05-14T12:44:12;4.85;;;4.05;;
14933;SDS011;7560;51.364;12.384;2023-05-14T12:49:14;4.95;;;4.22;;
14933;SDS011;7560;51.364;12.384;2023-05-14T12:54:16;7.22;;;4.68;;
14933;SDS011;7560;51.364;12.384;2023-05-14T12:59:19;4.55;;;3.33;;
14933;SDS011;7560;51.364;12.384;2023-05-14T13:04:25;4.10;;;3.70;;
14933;SDS011;7560;51.364;12.384;2023-05-14T13:09:28;3.10;;;2.80;;
14933;SDS011;7560;51.364;12.384;2023-05-14T13:14:31;3.38;;;2.55;;
14933;SDS011;7560;51.364;12.384;2023-05-14T13:19:36;3.10;;;2.80;;
14933;SDS011;7560;51.364;12.384;2023-05-14T13:24:40;3.13;;;2.50;;
14933;SDS011;7560;51.364;12.384;2023-05-14T13:29:42;2.70;;;2.50;;
14933;SDS011;7560;51.364;12.384;2023-05-14T13:34:44;2.63;;;2.33;;
14933;SDS011;7560;51.364;12.384;2023-05-14T13:39:45;2.97;;;2.67;;
14933;SDS011;7560;51.364;12.384;2023-05-14T13:44:50;2.83;;;2.60;;
14933;SDS011;7560;51.364;12.384;2023-05-14T13:49:53;3.92;;;3.30;;
14933;SDS011;7560;51.364;12.384;2023-05-14T13:54:55;3.95;;;3.50;;
14933;SDS011;7560;51.364;12.384;2023-05-14T13:59:58;4.03;;;3.42;;
14933;SDS011;7560;51.364;12.384;2023-05-14T14:05:00;4.65;;;3.78;;
14933;SDS011;7560;51.364;12.384;2023-05-14T14:10:03;4.25;;;3.70;;
14933;SDS011;7560;51.364;12.384;2023-05-14T14:15:05;3.85;;;3.55;;
14933;SDS011;7560;51.364;12.384;2023-05-14T14:20:09;4.10;;;3.55;;
14933;SDS011;7560;51.364;12.384;2023-05-14T14:25:12;4.63;;;3.58;;
14933;SDS011;7560;51.364;12.384;2023-05-14T14:30:15;3.95;;;3.60;;
14933;SDS011;7560;51.364;12.384;2023-05-14T14:35:18;4.60;;;4.20;;
14933;SDS011;7560;51.364;12.384;2023-05-14T14:40:20;4.78;;;4.05;;
14933;SDS011;7560;51.364;12.384;2023-05-14T14:45:24;4.20;;;3.83;;
14933;SDS011;7560;51.364;12.384;2023-05-14T14:50:26;4.43;;;4.03;;
14933;SDS011;7560;51.364;12.384;2023-05-14T14:55:29;4.18;;;3.78;;
14933;SDS011;7560;51.364;12.384;2023-05-14T15:00:32;4.35;;;3.95;;
14933;SDS011;7560;51.364;12.384;2023-05-14T15:05:34;5.32;;;3.90;;
14933;SDS011;7560;51.364;12.384;2023-05-14T15:10:36;4.35;;;3.90;;
14933;SDS011;7560;51.364;12.384;2023-05-14T15:15:38;4.78;;;4.30;;
14933;SDS011;7560;51.364;12.384;2023-05-14T15:20:40;4.90;;;4.28;;
14933;SDS011;7560;51.364;12.384;2023-05-14T15:25:44;5.38;;;4.53;;
14933;SDS011;7560;51.364;12.384;2023-05-14T15:30:46;4.40;;;4.00;;
14933;SDS011;7560;51.364;12.384;2023-05-14T15:35:48;5.13;;;4.63;;
14933;SDS011;7560;51.364;12.384;2023-05-14T15:40:51;5.18;;;4.50;;
14933;SDS011;7560;51.364;12.384;2023-05-14T15:45:53;5.10;;;4.60;;
14933;SDS011;7560;51.364;12.384;2023-05-14T15:50:55;4.50;;;4.03;;
14933;SDS011;7560;51.364;12.384;2023-05-14T15:55:57;4.93;;;4.43;;
14933;SDS011;7560;51.364;12.384;2023-05-14T16:01:02;6.95;;;4.63;;
14933;SDS011;7560;51.364;12.384;2023-05-14T16:06:05;6.90;;;5.03;;
14933;SDS011;7560;51.364;12.384;2023-05-14T16:11:07;5.22;;;4.72;;
14933;SDS011;7560;51.364;12.384;2023-05-14T16:16:09;8.30;;;4.72;;
14933;SDS011;7560;51.364;12.384;2023-05-14T16:21:11;6.32;;;4.93;;
14933;SDS011;7560;51.364;12.384;2023-05-14T16:26:15;5.53;;;5.00;;
14933;SDS011;7560;51.364;12.384;2023-05-14T16:31:17;7.72;;;5.10;;
14933;SDS011;7560;51.364;12.384;2023-05-14T16:36:21;5.30;;;4.78;;
14933;SDS011;7560;51.364;12.384;2023-05-14T16:41:25;4.85;;;4.35;;
14933;SDS011;7560;51.364;12.384;2023-05-14T16:46:27;6.53;;;5.18;;
14933;SDS011;7560;51.364;12.384;2023-05-14T16:51:30;5.78;;;4.20;;
14933;SDS011;7560;51.364;12.384;2023-05-14T16:56:35;4.88;;;4.30;;
14933;SDS011;7560;51.364;12.384;2023-05-14T17:01:37;4.47;;;4.07;;
14933;SDS011;7560;51.364;12.384;2023-05-14T17:06:42;8.77;;;4.95;;
14933;SDS011;7560;51.364;12.384;2023-05-14T17:11:45;4.30;;;3.78;;
14933;SDS011;7560;51.364;12.384;2023-05-14T17:16:48;6.35;;;3.70;;
14933;SDS011;7560;51.364;12.384;2023-05-14T17:21:49;4.65;;;3.40;;
14933;SDS011;7560;51.364;12.384;2023-05-14T17:26:51;4.07;;;3.67;;
14933;SDS011;7560;51.364;12.384;2023-05-14T17:31:53;4.75;;;3.85;;
14933;SDS011;7560;51.364;12.384;2023-05-14T17:36:56;4.53;;;3.75;;
14933;SDS011;7560;51.364;12.384;2023-05-14T17:41:58;3.88;;;3.40;;
14933;SDS011;7560;51.364;12.384;2023-05-14T17:46:59;5.05;;;2.92;;
14933;SDS011;7560;51.364;12.384;2023-05-14T17:52:03;3.97;;;2.97;;
14933;SDS011;7560;51.364;12.384;2023-05-14T17:57:07;4.93;;;3.08;;
14933;SDS011;7560;51.364;12.384;2023-05-14T18:02:09;3.33;;;2.80;;
14933;SDS011;7560;51.364;12.384;2023-05-14T18:07:11;2.72;;;2.53;;
14933;SDS011;7560;51.364;12.384;2023-05-14T18:12:13;4.20;;;2.97;;
14933;SDS011;7560;51.364;12.384;2023-05-14T18:17:16;3.60;;;2.97;;
14933;SDS011;7560;51.364;12.384;2023-05-14T18:22:18;4.53;;;2.75;;
14933;SDS011;7560;51.364;12.384;2023-05-14T18:27:21;3.70;;;2.83;;
14933;SDS011;7560;51.364;12.384;2023-05-14T18:32:26;3.63;;;3.15;;
14933;SDS011;7560;51.364;12.384;2023-05-14T18:37:29;3.88;;;3.10;;
14933;SDS011;7560;51.364;12.384;2023-05-14T18:42:30;4.18;;;3.25;;
14933;SDS011;7560;51.364;12.384;2023-05-14T18:47:33;3.80;;;3.40;;
14933;SDS011;7560;51.364;12.384;2023-05-14T18:52:35;3.78;;;3.45;;
14933;SDS011;7560;51.364;12.384;2023-05-14T18:57:37;5.35;;;3.55;;
14933;SDS011;7560;51.364;12.384;2023-05-14T19:02:40;3.78;;;3.30;;
14933;SDS011;7560;51.364;12.384;2023-05-14T19:07:42;4.00;;;3.22;;
14933;SDS011;7560;51.364;12.384;2023-05-14T19:12:45;4.55;;;3.88;;
14933;SDS011;7560;51.364;12.384;2023-05-14T19:17:47;4.65;;;3.85;;
14933;SDS011;7560;51.364;12.384;2023-05-14T19:22:50;3.75;;;3.45;;
14933;SDS011;7560;51.364;12.384;2023-05-14T19:27:51;4.30;;;3.58;;
14933;SDS011;7560;51.364;12.384;2023-05-14T19:32:56;4.50;;;3.90;;
14933;SDS011;7560;51.364;12.384;2023-05-14T19:37:59;4.30;;;3.90;;
14933;SDS011;7560;51.364;12.384;2023-05-14T19:43:01;5.60;;;3.97;;
14933;SDS011;7560;51.364;12.384;2023-05-14T19:48:04;5.30;;;4.10;;
14933;SDS011;7560;51.364;12.384;2023-05-14T19:53:06;5.50;;;4.50;;
14933;SDS011;7560;51.364;12.384;2023-05-14T19:58:08;4.68;;;4.25;;
14933;SDS011;7560;51.364;12.384;2023-05-14T20:03:13;5.05;;;4.10;;
14933;SDS011;7560;51.364;12.384;2023-05-14T20:08:17;6.22;;;4.68;;
14933;SDS011;7560;51.364;12.384;2023-05-14T20:13:20;5.65;;;4.50;;
14933;SDS011;7560;51.364;12.384;2023-05-14T20:18:25;6.55;;;4.75;;
14933;SDS011;7560;51.364;12.384;2023-05-14T20:23:27;6.28;;;4.97;;
14933;SDS011;7560;51.364;12.384;2023-05-14T20:28:29;7.45;;;5.32;;
14933;SDS011;7560;51.364;12.384;2023-05-14T20:33:32;9.02;;;5.20;;
14933;SDS011;7560;51.364;12.384;2023-05-14T20:38:35;7.15;;;4.90;;
14933;SDS011;7560;51.364;12.384;2023-05-14T20:43:39;6.68;;;5.05;;
14933;SDS011;7560;51.364;12.384;2023-05-14T20:48:40;8.43;;;5.70;;
14933;SDS011;7560;51.364;12.384;2023-05-14T20:53:42;5.72;;;4.82;;
14933;SDS011;7560;51.364;12.384;2023-05-14T20:58:44;6.38;;;5.15;;
14933;SDS011;7560;51.364;12.384;2023-05-14T21:03:46;8.00;;;5.43;;
14933;SDS011;7560;51.364;12.384;2023-05-14T21:08:48;7.32;;;5.82;;
14933;SDS011;7560;51.364;12.384;2023-05-14T21:13:52;6.18;;;5.57;;
14933;SDS011;7560;51.364;12.384;2023-05-14T21:18:55;8.65;;;5.95;;
14933;SDS011;7560;51.364;12.384;2023-05-14T21:23:57;9.02;;;6.53;;
14933;SDS011;7560;51.364;12.384;2023-05-14T21:28:59;12.93;;;9.80;;
14933;SDS011;7560;51.364;12.384;2023-05-14T21:34:02;7.38;;;6.28;;
14933;SDS011;7560;51.364;12.384;2023-05-14T21:39:05;8.07;;;6.15;;
14933;SDS011;7560;51.364;12.384;2023-05-14T21:44:07;7.97;;;6.55;;
14933;SDS011;7560;51.364;12.384;2023-05-14T21:49:09;7.78;;;6.32;;
14933;SDS011;7560;51.364;12.384;2023-05-14T21:54:12;7.57;;;6.43;;
14933;SDS011;7560;51.364;12.384;2023-05-14T21:59:14;7.38;;;6.18;;
14933;SDS011;7560;51.364;12.384;2023-05-14T22:04:18;8.15;;;6.30;;
14933;SDS011;7560;51.364;12.384;2023-05-14T22:09:20;8.70;;;6.80;;
14933;SDS011;7560;51.364;12.384;2023-05-14T22:14:22;9.48;;;7.75;;
14933;SDS011;7560;51.364;12.384;2023-05-14T22:19:26;10.63;;;9.07;;
14933;SDS011;7560;51.364;12.384;2023-05-14T22:24:30;10.18;;;8.60;;
14933;SDS011;7560;51.364;12.384;2023-05-14T22:29:33;11.27;;;7.82;;
14933;SDS011;7560;51.364;12.384;2023-05-14T22:34:37;13.45;;;7.40;;
14933;SDS011;7560;51.364;12.384;2023-05-14T22:39:39;8.20;;;7.35;;
14933;SDS011;7560;51.364;12.384;2023-05-14T22:44:41;9.75;;;7.47;;
14933;SDS011;7560;51.364;12.384;2023-05-14T22:49:43;9.63;;;7.65;;
14933;SDS011;7560;51.364;12.384;2023-05-14T22:54:45;9.13;;;7.47;;
14933;SDS011;7560;51.364;12.384;2023-05-14T22:59:49;9.65;;;7.85;;
14933;SDS011;7560;51.364;12.384;2023-05-14T23:04:56;11.82;;;7.85;;
14933;SDS011;7560;51.364;12.384;2023-05-14T23:09:57;7.82;;;7.03;;
14933;SDS011;7560;51.364;12.384;2023-05-14T23:14:59;10.18;;;7.95;;
14933;SDS011;7560;51.364;12.384;2023-05-14T23:20:03;9.80;;;7.90;;
14933;SDS011;7560;51.364;12.384;2023-05-14T23:25:06;9.50;;;7.82;;
14933;SDS011;7560;51.364;12.384;2023-05-14T23:30:08;9.98;;;8.25;;
14933;SDS011;7560;51.364;12.384;2023-05-14T23:35:10;11.57;;;9.20;;
14933;SDS011;7560;51.364;12.384;2023-05-14T23:40:12;12.43;;;9.10;;
14933;SDS011;7560;51.364;12.384;2023-05-14T23:45:15;11.25;;;8.85;;
14933;SDS011;7560;51.364;12.384;2023-05-14T23:50:18;11.98;;;8.50;;
14933;SDS011;7560;51.364;12.384;2023-05-14T23:55:20;10.27;;;8.45;;
